Nearby METAR Reports

 

KORH - Worcester, Massachusetts, USA
Distance from station: NW 4mi, 7km
Updated: Fri, 20-Sep-2019 5:54am EDT
Clear
Clear
 Wind from W
Wind: W 12 mph , 19 km/h
Temperature: 48°F , 9°C
Wind Chill: 43°F , 6°C
Dew Point: 43°F , 6°C
Humidity: 82%
Barometer: 30.21 inHg , 1023 hPa
Clouds: Clear
Visibility: 10 miles , 16 km
2019/09/20 09:54 KORH 200954Z 28010KT 10SM CLR 09/06 A3021 RMK AO2 SLP230 T00940061
KBOS - Boston, Massachusetts, USA
Distance from station: ENE 42mi, 68km
Updated: Fri, 20-Sep-2019 5:54am EDT
Few Clouds
Few Clouds
 Wind from calm
Wind: Calm
Temperature: 54°F , 12°C
Dew Point: 41°F , 5°C
Humidity: 63%
Barometer: 30.20 inHg , 1022.7 hPa
Clouds: Few Clouds
Visibility: 10 miles , 16 km
Cloud details: Few Clouds 25000 ft
2019/09/20 09:54 KBOS 200954Z 00000KT 10SM FEW250 12/05 A3020 RMK AO2 SLP225 T01220050
 
KCQX - Chatham, Massachusetts, USA
Distance from station: SE 102mi, 164km
Updated: Fri, 20-Sep-2019 5:52am EDT
Clear
Clear
 Wind from calm
Wind: Calm
Temperature: 48°F , 9°C
Dew Point: 46°F , 8°C
Humidity: 94%
Barometer: 30.21 inHg , 1023 hPa
Clouds: Clear
Visibility: 10 miles , 16 km
2019/09/20 09:52 KCQX 200952Z AUTO 00000KT 10SM CLR 09/08 A3021 RMK AO2 SLP231 T00940083
KMVY - Marthas Vineyard, Massachusetts, USA
Distance from station: SE 84mi, 135km
Updated: Fri, 20-Sep-2019 5:53am EDT
Clear
Clear
 Wind from W
Wind: W 3 mph , 6 km/h
Temperature: 39°F , 4°C
Dew Point: 37°F , 3°C
Humidity: 93%
Barometer: 30.21 inHg , 1023 hPa
Clouds: Clear
Visibility: 9 miles , 14 km
2019/09/20 09:53 KMVY 200953Z 26003KT 9SM CLR 04/03 A3021 RMK AO2 SLP229 T00440028
 
KPVC - Provincetown, Massachusetts, USA
Distance from station: NNW 85mi, 136km
Updated: Fri, 20-Sep-2019 5:56am EDT
Clear
Clear
 Wind from W
Wind: W 5 mph , 7 km/h
Temperature: 52°F , 11°C
Dew Point: 48°F , 9°C
Humidity: 88%
Barometer: 30.20 inHg , 1022.7 hPa
Clouds: Clear
Visibility: 10 miles , 16 km
2019/09/20 09:56 KPVC 200956Z AUTO 26004KT 10SM CLR 11/09 A3020 RMK AO2 SLP226 T01110094 PNO $
KAQW - Savoy, Massachusetts, USA
Distance from station: NNW 66mi, 106km
Updated: Fri, 20-Sep-2019 6:24am EDT
Fog, Overcast
Fog, Overcast
 Wind from calm
Wind: Calm
Temperature: 37°F , 3°C
Dew Point: 37°F , 3°C
Humidity: 100%
Barometer: 30.27 inHg , 1025.1 hPa
Summary: Fog
Clouds: Overcast
Visibility: 1/4 mile , 0.4 km
Cloud details: Overcast 200 ft
2019/09/20 10:24 KAQW 201024Z AUTO 00000KT 1/4SM FG VV002 03/03 A3027 RMK AO2 T00280028
 
KIZG - Fryeburg, Maine, USA
Distance from station: NNE 133mi, 214km
Updated: Fri, 20-Sep-2019 6:32am EDT
Few Clouds
Few Clouds
 Wind from calm
Wind: Calm
Temperature: 36°F , 2°C
Dew Point: 36°F , 2°C
Humidity: 100%
Barometer: 30.19 inHg , 1022.4 hPa
Clouds: Few Clouds
Visibility: 10 miles , 16 km
Cloud details: Few Clouds 100 ft
2019/09/20 10:32 KIZG 201032Z AUTO 00000KT 10SM FEW001 02/02 A3019 RMK AO2 T00220017
KMWN - Mt Washington, New Hampshire, USA
Distance from station: NNE 146mi, 234km
Updated: Fri, 20-Sep-2019 5:54am EDT
Partly cloudy
Partly cloudy
 Wind from N
Wind: N 16 mph , 26 km/h
Temperature: 48°F , 9°C
Wind Chill: 42°F , 6°C
Dew Point: 41°F , 5°C
Humidity: 76%
Clouds: Partly cloudy
Visibility: 80 miles , 128 km
Cloud details: Few Clouds 15000 ft
Partly cloudy 20000 ft
2019/09/20 09:54 KMWN 200954Z 36014KT 80SM FEW150 SCT200 09/05 RMK PTCHY VLY FG ALQDS
 
KBML - Berlin, New Hampshire, USA
Distance from station: NNE 160mi, 257km
Updated: Fri, 20-Sep-2019 6:35am EDT
Fog, Overcast
Fog, Overcast
 Wind from calm
Wind: Calm
Temperature: 34°F , 1°C
Dew Point: 32°F , 0°C
Humidity: 93%
Barometer: 30.24 inHg , 1024 hPa
Summary: Fog
Clouds: Overcast
Visibility: 1/2 mile , 0.8 km
Cloud details: Overcast 100 ft
2019/09/20 10:35 KBML 201035Z AUTO 00000KT 1/2SM FG VV001 01/00 A3024 RMK AO2 VIS M1/4V4 T00110000 $